Time;durP1;ratioP1;P1;durP2;ratioP2;P2;SDS_P1;SDS_P2;PMS_P1;PMS_P2;Temp;Humidity;BMP_temperature;BMP_pressure;BME280_temperature;BME280_humidity;BME280_pressure;Samples;Min_cycle;Max_cycle;Signal;HPM_P1;HPM_P2
2023/12/13 00:00:23;;;;;;;;;;;10.20;99.90;;;;;;5049267;28;20387;-83
2023/12/13 00:02:49;;;;;;;;;;;10.10;99.90;;;;;;5049500;28;19919;-84
2023/12/13 00:05:14;;;;;;;;;;;10.10;99.90;;;;;;5049109;28;19928;-85
2023/12/13 00:07:40;;;;;;;;;;;10.00;99.90;;;;;;5048806;28;19908;-84
2023/12/13 00:10:05;;;;;;;;;;;10.00;99.90;;;;;;5047748;28;19913;-84
2023/12/13 00:12:31;;;;;;;;;;;10.10;99.90;;;;;;5028859;28;19936;-84
2023/12/13 00:14:56;;;;;;;;;;;10.10;99.90;;;;;;5032536;28;19917;-83
2023/12/13 00:17:22;;;;;;;;;;;10.20;99.90;;;;;;5030907;28;19908;-84
2023/12/13 00:19:47;;;;;;;;;;;10.20;99.90;;;;;;5031442;28;19967;-84
2023/12/13 00:22:13;;;;;;;;;;;10.20;99.90;;;;;;5031417;28;19912;-84
2023/12/13 00:24:38;;;;;;;;;;;10.20;99.90;;;;;;5064278;28;20363;-84
2023/12/13 00:27:04;;;;;;;;;;;10.20;99.90;;;;;;5047519;28;19909;-83
2023/12/13 00:29:29;;;;;;;;;;;10.20;99.90;;;;;;5063877;28;19963;-84
2023/12/13 00:31:55;;;;;;;;;;;10.10;99.90;;;;;;5048332;28;19925;-83
2023/12/13 00:34:20;;;;;;;;;;;10.20;99.90;;;;;;5048860;28;19917;-83
2023/12/13 00:36:46;;;;;;;;;;;10.20;99.90;;;;;;5046799;28;19991;-83
2023/12/13 00:39:11;;;;;;;;;;;10.20;99.90;;;;;;5048540;28;19920;-83
2023/12/13 00:41:37;;;;;;;;;;;10.10;99.90;;;;;;5035364;28;19990;-83
2023/12/13 00:44:05;;;;;;;;;;;10.00;99.90;;;;;;5034726;28;19990;-83
2023/12/13 00:46:31;;;;;;;;;;;10.10;99.90;;;;;;5047158;28;19912;-84
2023/12/13 00:48:56;;;;;;;;;;;10.00;99.90;;;;;;5030270;28;20417;-83
2023/12/13 00:51:22;;;;;;;;;;;10.10;99.90;;;;;;5048100;28;19959;-83
2023/12/13 00:53:48;;;;;;;;;;;10.20;99.90;;;;;;5049089;28;19909;-83
2023/12/13 00:56:14;;;;;;;;;;;10.10;99.90;;;;;;5047696;28;19912;-83
2023/12/13 00:58:39;;;;;;;;;;;10.00;99.90;;;;;;5046993;28;20011;-83
2023/12/13 01:01:06;;;;;;;;;;;10.00;99.90;;;;;;5048026;28;19920;-83
2023/12/13 01:03:32;;;;;;;;;;;10.00;99.90;;;;;;5031272;28;19912;-84
2023/12/13 01:05:57;;;;;;;;;;;10.00;99.90;;;;;;5047386;28;19912;-84
2023/12/13 01:08:23;;;;;;;;;;;10.20;99.90;;;;;;5048129;28;19927;-84
2023/12/13 01:10:49;;;;;;;;;;;10.20;99.90;;;;;;5047914;28;19916;-84
2023/12/13 01:13:15;;;;;;;;;;;10.20;99.90;;;;;;5030917;28;19916;-83
2023/12/13 01:15:40;;;;;;;;;;;10.20;99.90;;;;;;5046925;28;19913;-84
2023/12/13 01:18:06;;;;;;;;;;;10.30;99.90;;;;;;5047855;28;20527;-84
2023/12/13 01:20:32;;;;;;;;;;;10.30;99.90;;;;;;5032874;28;19912;-84
2023/12/13 01:22:57;;;;;;;;;;;10.30;99.90;;;;;;5030227;28;20790;-83
2023/12/13 01:25:23;;;;;;;;;;;10.20;99.90;;;;;;5047690;28;20295;-84
2023/12/13 01:27:48;;;;;;;;;;;10.20;99.90;;;;;;5032759;28;19949;-84
2023/12/13 01:30:14;;;;;;;;;;;10.10;99.90;;;;;;5047382;28;19924;-86
2023/12/13 01:32:39;;;;;;;;;;;10.10;99.90;;;;;;5029155;28;19916;-84
2023/12/13 01:35:05;;;;;;;;;;;10.10;99.90;;;;;;5029746;28;19940;-83
2023/12/13 01:37:31;;;;;;;;;;;10.10;99.90;;;;;;5028335;28;20034;-83
2023/12/13 01:39:57;;;;;;;;;;;10.10;99.90;;;;;;5047059;28;20023;-83
2023/12/13 01:42:23;;;;;;;;;;;10.10;99.90;;;;;;5047355;28;19963;-84
2023/12/13 01:44:49;;;;;;;;;;;10.10;99.90;;;;;;5029004;28;19999;-85
2023/12/13 01:47:14;;;;;;;;;;;10.10;99.90;;;;;;5047898;28;19995;-85
2023/12/13 01:49:40;;;;;;;;;;;10.10;99.90;;;;;;5046738;28;20462;-85
2023/12/13 01:52:06;;;;;;;;;;;10.10;99.90;;;;;;5031829;28;19913;-84
2023/12/13 01:54:32;;;;;;;;;;;10.10;99.90;;;;;;5046911;28;19924;-86
2023/12/13 01:56:58;;;;;;;;;;;10.10;99.90;;;;;;5047901;28;19916;-83
2023/12/13 01:59:24;;;;;;;;;;;10.20;99.90;;;;;;5029885;28;19947;-85
2023/12/13 02:01:52;;;;;;;;;;;10.10;99.90;;;;;;5031949;28;19986;-85
2023/12/13 02:04:20;;;;;;;;;;;10.20;99.90;;;;;;5047438;28;19974;-85
2023/12/13 02:06:45;;;;;;;;;;;10.20;99.90;;;;;;5043863;28;19967;-84
2023/12/13 02:09:11;;;;;;;;;;;10.20;99.90;;;;;;5045864;28;19916;-84
2023/12/13 02:11:37;;;;;;;;;;;10.10;99.90;;;;;;5027258;28;20597;-84
2023/12/13 02:14:04;;;;;;;;;;;10.10;99.90;;;;;;5029906;28;20386;-84
2023/12/13 02:16:32;;;;;;;;;;;10.00;99.90;;;;;;5061121;28;19913;-85
2023/12/13 02:18:58;;;;;;;;;;;9.90;99.90;;;;;;5046439;28;19921;-86
2023/12/13 02:21:24;;;;;;;;;;;9.80;99.90;;;;;;5046209;28;19917;-86
2023/12/13 02:23:51;;;;;;;;;;;9.70;99.90;;;;;;5028518;28;19913;-86
2023/12/13 02:26:16;;;;;;;;;;;9.70;99.90;;;;;;5046184;28;19913;-86
2023/12/13 02:28:43;;;;;;;;;;;9.60;99.90;;;;;;5029783;28;20626;-85
2023/12/13 02:31:09;;;;;;;;;;;9.60;99.90;;;;;;5045970;28;19999;-84
2023/12/13 02:33:35;;;;;;;;;;;9.60;99.90;;;;;;5027988;28;20024;-85
2023/12/13 02:36:05;;;;;;;;;;;9.50;99.90;;;;;;5024971;28;19966;-85
2023/12/13 02:38:31;;;;;;;;;;;9.60;99.90;;;;;;5031245;28;19948;-85
2023/12/13 02:40:57;;;;;;;;;;;9.50;99.90;;;;;;5045716;28;19916;-84
2023/12/13 02:43:22;;;;;;;;;;;9.60;99.90;;;;;;5046081;28;20434;-84
2023/12/13 02:45:48;;;;;;;;;;;9.60;99.90;;;;;;5028339;28;19943;-84
2023/12/13 02:48:13;;;;;;;;;;;9.60;99.90;;;;;;5028939;28;19963;-86
2023/12/13 02:50:39;;;;;;;;;;;9.60;99.90;;;;;;5028174;28;20435;-87
2023/12/13 02:53:05;;;;;;;;;;;9.60;99.90;;;;;;5028137;28;19913;-85
2023/12/13 02:55:31;;;;;;;;;;;9.60;99.90;;;;;;5045668;28;20030;-86
2023/12/13 02:57:56;;;;;;;;;;;9.60;99.90;;;;;;5028014;28;19936;-85
2023/12/13 03:00:22;;;;;;;;;;;9.60;99.90;;;;;;5045344;28;19924;-85
2023/12/13 03:02:47;;;;;;;;;;;9.70;99.90;;;;;;5028006;28;19961;-85
2023/12/13 03:05:13;;;;;;;;;;;9.70;99.90;;;;;;5034454;28;19962;-86
2023/12/13 03:07:39;;;;;;;;;;;9.70;99.90;;;;;;5045540;28;19913;-85
2023/12/13 03:10:05;;;;;;;;;;;9.70;99.90;;;;;;5032876;28;19912;-84
2023/12/13 03:12:31;;;;;;;;;;;9.80;99.90;;;;;;5046095;28;19919;-83
2023/12/13 03:14:56;;;;;;;;;;;9.70;99.90;;;;;;5027872;28;19951;-83
2023/12/13 03:17:22;;;;;;;;;;;9.80;99.90;;;;;;5045940;28;19919;-87
2023/12/13 03:19:47;;;;;;;;;;;9.70;99.90;;;;;;5030181;28;19913;-86
2023/12/13 03:22:13;;;;;;;;;;;9.70;99.90;;;;;;5027619;28;19965;-82
2023/12/13 03:24:39;;;;;;;;;;;9.80;99.90;;;;;;5046091;28;19991;-82
2023/12/13 03:27:04;;;;;;;;;;;9.90;99.90;;;;;;5045938;28;20000;-83
2023/12/13 03:29:30;;;;;;;;;;;9.80;99.90;;;;;;5029166;28;20672;-83
2023/12/13 03:31:56;;;;;;;;;;;9.80;99.90;;;;;;5045354;28;19920;-83
2023/12/13 03:34:21;;;;;;;;;;;9.70;99.90;;;;;;5044188;28;19912;-83
2023/12/13 03:36:47;;;;;;;;;;;9.70;99.90;;;;;;5032075;28;20468;-84
2023/12/13 03:39:12;;;;;;;;;;;9.60;99.90;;;;;;5027203;28;20011;-87
2023/12/13 03:41:38;;;;;;;;;;;9.60;99.90;;;;;;5039690;28;20007;-87
2023/12/13 03:44:03;;;;;;;;;;;9.60;99.90;;;;;;5041536;28;19947;-87
2023/12/13 03:46:29;;;;;;;;;;;9.60;99.90;;;;;;5045773;28;19986;-86
2023/12/13 03:48:54;;;;;;;;;;;9.60;99.90;;;;;;5045113;28;19979;-88
2023/12/13 03:51:20;;;;;;;;;;;9.70;99.90;;;;;;5027386;28;19920;-87
2023/12/13 03:53:45;;;;;;;;;;;9.80;99.90;;;;;;5044696;28;20401;-89
2023/12/13 03:56:11;;;;;;;;;;;9.80;99.90;;;;;;5045610;28;20645;-88
2023/12/13 03:58:37;;;;;;;;;;;9.70;99.90;;;;;;5027776;28;20082;-87
2023/12/13 04:01:02;;;;;;;;;;;9.70;99.90;;;;;;5028197;28;20544;-88
2023/12/13 04:03:28;;;;;;;;;;;9.70;99.90;;;;;;5034798;28;20428;-87
2023/12/13 04:05:53;;;;;;;;;;;9.80;99.90;;;;;;5049326;28;19913;-89
2023/12/13 04:08:19;;;;;;;;;;;9.70;99.90;;;;;;5033199;28;19908;-92
2023/12/13 04:10:44;;;;;;;;;;;9.60;99.90;;;;;;5034492;28;19916;-92
2023/12/13 04:13:10;;;;;;;;;;;9.60;99.90;;;;;;5050400;28;19913;-89
2023/12/13 04:15:35;;;;;;;;;;;9.60;99.90;;;;;;5034809;28;19943;-87
2023/12/13 04:18:01;;;;;;;;;;;9.50;99.90;;;;;;5032073;28;20589;-84
2023/12/13 04:20:26;;;;;;;;;;;9.50;99.90;;;;;;5049291;28;19982;-86
2023/12/13 04:22:52;;;;;;;;;;;9.50;99.90;;;;;;5045990;28;19916;-84
2023/12/13 04:25:17;;;;;;;;;;;9.40;99.90;;;;;;5048923;28;19919;-85
2023/12/13 04:27:45;;;;;;;;;;;9.30;99.90;;;;;;5048856;28;20283;-85
2023/12/13 04:30:11;;;;;;;;;;;9.30;99.90;;;;;;5031503;28;19959;-86
2023/12/13 04:32:37;;;;;;;;;;;9.40;99.90;;;;;;5049122;28;19981;-87
2023/12/13 04:35:03;;;;;;;;;;;9.40;99.90;;;;;;5051780;28;19932;-91
2023/12/13 04:37:28;;;;;;;;;;;9.40;99.90;;;;;;5033931;28;19909;-93
2023/12/13 04:39:54;;;;;;;;;;;9.30;99.90;;;;;;5032854;28;20005;-84
2023/12/13 04:42:19;;;;;;;;;;;9.40;99.90;;;;;;5049462;28;19916;-84
2023/12/13 04:44:45;;;;;;;;;;;9.40;99.90;;;;;;5062280;28;19988;-87
2023/12/13 04:47:11;;;;;;;;;;;9.50;99.90;;;;;;5049355;28;20254;-85
2023/12/13 04:49:37;;;;;;;;;;;9.50;99.90;;;;;;5048783;28;19920;-86
2023/12/13 04:52:03;;;;;;;;;;;9.50;99.90;;;;;;5033064;28;20280;-90
2023/12/13 04:54:29;;;;;;;;;;;9.60;99.90;;;;;;5031354;28;20013;-87
2023/12/13 04:56:55;;;;;;;;;;;9.50;99.90;;;;;;5035942;28;19917;-88
2023/12/13 04:59:20;;;;;;;;;;;9.50;99.90;;;;;;5031368;28;19924;-88
2023/12/13 05:01:46;;;;;;;;;;;9.50;99.90;;;;;;5048342;28;19979;-89
2023/12/13 05:04:11;;;;;;;;;;;9.60;99.90;;;;;;5032024;28;19912;-86
2023/12/13 05:06:37;;;;;;;;;;;9.50;99.90;;;;;;5031650;28;19912;-87
2023/12/13 05:09:03;;;;;;;;;;;9.60;99.90;;;;;;5047827;28;19912;-87
2023/12/13 05:11:28;;;;;;;;;;;9.60;99.90;;;;;;5042227;28;19916;-87
2023/12/13 05:13:54;;;;;;;;;;;9.60;99.90;;;;;;5045763;28;20299;-86
2023/12/13 05:16:20;;;;;;;;;;;9.50;99.90;;;;;;5029953;28;19920;-88
2023/12/13 05:18:45;;;;;;;;;;;9.50;99.90;;;;;;5030816;28;19927;-88
2023/12/13 05:21:11;;;;;;;;;;;9.50;99.90;;;;;;5034917;28;19919;-88
2023/12/13 05:23:37;;;;;;;;;;;9.50;99.90;;;;;;5048228;28;20646;-87
2023/12/13 05:26:02;;;;;;;;;;;9.40;99.90;;;;;;5049120;28;19919;-87
2023/12/13 05:28:28;;;;;;;;;;;9.40;99.90;;;;;;5046990;28;19913;-86
2023/12/13 05:30:54;;;;;;;;;;;9.40;99.90;;;;;;5046157;28;19920;-88
2023/12/13 05:33:19;;;;;;;;;;;9.40;99.90;;;;;;5046947;28;19959;-86
2023/12/13 05:35:45;;;;;;;;;;;9.40;99.90;;;;;;5029547;28;19917;-85
2023/12/13 05:38:10;;;;;;;;;;;9.40;99.90;;;;;;5049236;28;19916;-90
2023/12/13 05:40:36;;;;;;;;;;;9.30;99.90;;;;;;5029772;28;19946;-87
2023/12/13 05:43:01;;;;;;;;;;;9.10;99.90;;;;;;5048840;28;20364;-87
2023/12/13 05:45:27;;;;;;;;;;;9.30;99.90;;;;;;5032482;28;19966;-95
2023/12/13 05:47:53;;;;;;;;;;;9.30;99.90;;;;;;5032959;28;19917;-88
2023/12/13 05:50:18;;;;;;;;;;;9.40;99.90;;;;;;5046988;28;20043;-89
2023/12/13 05:52:44;;;;;;;;;;;9.30;99.90;;;;;;5036550;28;19944;-95
2023/12/13 05:55:10;;;;;;;;;;;9.30;99.90;;;;;;5033142;28;19924;-91
2023/12/13 05:57:36;;;;;;;;;;;9.30;99.90;;;;;;5029884;28;20520;-92
2023/12/13 06:00:06;;;;;;;;;;;9.20;99.90;;;;;;5031807;28;19916;-91
2023/12/13 06:02:32;;;;;;;;;;;9.20;99.90;;;;;;5031184;28;20068;-91
2023/12/13 06:04:58;;;;;;;;;;;9.20;99.90;;;;;;5047502;28;19913;-85
2023/12/13 06:07:23;;;;;;;;;;;9.20;99.90;;;;;;5047334;28;19917;-86
2023/12/13 06:09:49;;;;;;;;;;;9.20;99.90;;;;;;5048056;28;19913;-86
2023/12/13 06:12:16;;;;;;;;;;;9.00;99.90;;;;;;5030308;28;19916;-84
2023/12/13 06:14:41;;;;;;;;;;;8.80;99.90;;;;;;5047357;28;19912;-84
2023/12/13 06:17:07;;;;;;;;;;;8.70;99.90;;;;;;5030207;28;19919;-82
2023/12/13 06:19:32;;;;;;;;;;;8.70;99.90;;;;;;5046228;28;19919;-83
2023/12/13 06:21:58;;;;;;;;;;;8.60;99.90;;;;;;5045837;28;20520;-85
2023/12/13 06:24:24;;;;;;;;;;;8.60;99.90;;;;;;5028866;28;19919;-83
2023/12/13 06:26:49;;;;;;;;;;;8.60;99.90;;;;;;5045229;28;19951;-80
2023/12/13 06:29:15;;;;;;;;;;;8.70;99.90;;;;;;5046392;28;19963;-80
2023/12/13 06:31:41;;;;;;;;;;;8.70;99.90;;;;;;5033512;28;19943;-82
2023/12/13 06:34:06;;;;;;;;;;;8.60;99.90;;;;;;5031439;28;19938;-84
2023/12/13 06:36:32;;;;;;;;;;;8.60;99.90;;;;;;5029667;28;20027;-91
2023/12/13 06:38:57;;;;;;;;;;;8.60;99.90;;;;;;5031548;28;19913;-87
2023/12/13 06:41:23;;;;;;;;;;;8.60;99.90;;;;;;5031466;28;19943;-86
2023/12/13 06:43:48;;;;;;;;;;;8.70;99.90;;;;;;5029686;28;19913;-90
2023/12/13 06:46:14;;;;;;;;;;;8.70;99.90;;;;;;5027986;28;19923;-90
2023/12/13 06:48:40;;;;;;;;;;;8.70;99.90;;;;;;5053199;28;19921;-88
2023/12/13 06:51:06;;;;;;;;;;;8.60;99.90;;;;;;5046905;28;19924;-85
2023/12/13 06:53:32;;;;;;;;;;;8.60;99.90;;;;;;5031647;28;20176;-87
2023/12/13 06:55:58;;;;;;;;;;;8.60;99.90;;;;;;5046532;28;19916;-89
2023/12/13 06:58:24;;;;;;;;;;;8.60;99.90;;;;;;5044359;28;19963;-88
2023/12/13 07:00:49;;;;;;;;;;;8.60;99.90;;;;;;5047517;28;19948;-88
2023/12/13 07:03:15;;;;;;;;;;;8.70;99.90;;;;;;5047440;28;19952;-89
2023/12/13 07:05:41;;;;;;;;;;;8.70;99.90;;;;;;5029863;28;20372;-89
2023/12/13 07:08:08;;;;;;;;;;;8.80;99.90;;;;;;5046853;28;20474;-89
2023/12/13 07:10:33;;;;;;;;;;;8.80;99.90;;;;;;5029677;28;19908;-87
2023/12/13 07:12:59;;;;;;;;;;;8.70;99.90;;;;;;5042541;28;20015;-89
2023/12/13 07:15:24;;;;;;;;;;;8.60;99.90;;;;;;5029246;28;19926;-88
2023/12/13 07:17:50;;;;;;;;;;;8.60;99.90;;;;;;5029264;28;19908;-86
2023/12/13 07:20:18;;;;;;;;;;;8.40;99.90;;;;;;5031021;28;20041;-86
2023/12/13 07:22:43;;;;;;;;;;;8.40;99.90;;;;;;5033987;28;19923;-90
2023/12/13 07:25:09;;;;;;;;;;;8.40;99.90;;;;;;5032831;28;19916;-92
2023/12/13 07:27:34;;;;;;;;;;;8.60;99.90;;;;;;5029152;28;19917;-89
2023/12/13 07:30:00;;;;;;;;;;;8.70;99.90;;;;;;5047549;28;19900;-88
2023/12/13 07:32:25;;;;;;;;;;;8.80;99.90;;;;;;5047323;28;20415;-89
2023/12/13 07:34:51;;;;;;;;;;;8.80;99.90;;;;;;5030261;28;19913;-90
2023/12/13 07:37:17;;;;;;;;;;;8.80;99.90;;;;;;5047065;28;19915;-89
2023/12/13 07:39:42;;;;;;;;;;;8.80;99.90;;;;;;5035654;28;19931;-88
2023/12/13 07:42:08;;;;;;;;;;;8.80;99.90;;;;;;5045730;28;19912;-88
2023/12/13 07:44:33;;;;;;;;;;;8.90;99.90;;;;;;5035077;28;19999;-89
2023/12/13 07:46:59;;;;;;;;;;;8.90;99.90;;;;;;5053082;28;19908;-90
2023/12/13 07:49:26;;;;;;;;;;;8.90;99.90;;;;;;5033974;28;19955;-90
2023/12/13 07:51:51;;;;;;;;;;;8.90;99.90;;;;;;5033762;28;19956;-89
2023/12/13 07:54:18;;;;;;;;;;;8.80;99.90;;;;;;5051252;28;19936;-89
2023/12/13 07:56:45;;;;;;;;;;;8.80;99.90;;;;;;5033025;28;19909;-90
2023/12/13 07:59:11;;;;;;;;;;;8.70;99.90;;;;;;5032537;28;19909;-89
2023/12/13 08:01:37;;;;;;;;;;;8.80;99.90;;;;;;5050703;28;20744;-90
2023/12/13 08:04:02;;;;;;;;;;;8.60;99.90;;;;;;5038625;28;19909;-90
2023/12/13 08:06:28;;;;;;;;;;;8.70;99.90;;;;;;5033385;28;19909;-90
2023/12/13 08:08:54;;;;;;;;;;;8.60;99.90;;;;;;5032708;28;19909;-90
2023/12/13 08:11:19;;;;;;;;;;;8.80;99.90;;;;;;5032307;28;19935;-88
2023/12/13 08:13:45;;;;;;;;;;;8.80;99.90;;;;;;5049614;28;19957;-87
2023/12/13 08:16:10;;;;;;;;;;;8.90;99.90;;;;;;5049568;28;20443;-89
2023/12/13 08:18:36;;;;;;;;;;;9.00;99.90;;;;;;5049421;28;19908;-88
2023/12/13 08:21:03;;;;;;;;;;;8.80;99.90;;;;;;5049553;28;19995;-87
2023/12/13 08:23:29;;;;;;;;;;;8.90;99.90;;;;;;5048814;28;19974;-89
2023/12/13 08:25:55;;;;;;;;;;;8.90;99.90;;;;;;5049231;28;19909;-88
2023/12/13 08:28:21;;;;;;;;;;;8.90;99.90;;;;;;5031589;28;19909;-87
2023/12/13 08:30:47;;;;;;;;;;;8.90;99.90;;;;;;5031172;28;19927;-89
2023/12/13 08:33:13;;;;;;;;;;;8.80;99.90;;;;;;5031284;28;19935;-88
2023/12/13 08:35:38;;;;;;;;;;;8.90;99.90;;;;;;5031590;28;19909;-88
2023/12/13 08:38:04;;;;;;;;;;;9.00;99.90;;;;;;5049414;28;19921;-88
2023/12/13 08:40:29;;;;;;;;;;;9.00;99.90;;;;;;5049368;28;19914;-89
2023/12/13 08:42:55;;;;;;;;;;;9.00;99.90;;;;;;5049014;28;20007;-88
2023/12/13 08:45:21;;;;;;;;;;;9.10;99.90;;;;;;5030584;28;19962;-87
2023/12/13 08:47:46;;;;;;;;;;;9.20;99.90;;;;;;5048118;28;20213;-87
2023/12/13 08:50:12;;;;;;;;;;;9.20;99.90;;;;;;5031658;28;19909;-87
2023/12/13 08:52:38;;;;;;;;;;;9.20;99.90;;;;;;5049107;28;19908;-87
2023/12/13 08:55:04;;;;;;;;;;;9.20;99.90;;;;;;5048893;28;19919;-87
2023/12/13 08:57:30;;;;;;;;;;;9.10;99.90;;;;;;5031024;28;19919;-87
2023/12/13 08:59:55;;;;;;;;;;;9.20;99.90;;;;;;5047026;28;19913;-87
2023/12/13 09:02:21;;;;;;;;;;;9.10;99.90;;;;;;5032543;28;20692;-86
2023/12/13 09:04:46;;;;;;;;;;;9.10;99.90;;;;;;5050080;28;19909;-86
2023/12/13 09:07:12;;;;;;;;;;;9.10;99.90;;;;;;5049528;28;19918;-86
2023/12/13 09:09:37;;;;;;;;;;;9.10;99.90;;;;;;5031183;28;19970;-86
2023/12/13 09:12:05;;;;;;;;;;;9.00;99.90;;;;;;5031493;28;19939;-86
2023/12/13 09:14:31;;;;;;;;;;;9.00;99.90;;;;;;5030934;28;19908;-86
2023/12/13 09:16:56;;;;;;;;;;;9.00;99.90;;;;;;5048720;28;19909;-87
2023/12/13 09:19:22;;;;;;;;;;;9.10;99.90;;;;;;5031016;28;19931;-87
2023/12/13 09:21:47;;;;;;;;;;;9.00;99.90;;;;;;5031045;28;19924;-87
2023/12/13 09:24:13;;;;;;;;;;;8.90;99.90;;;;;;5048787;28;19958;-87
2023/12/13 09:26:39;;;;;;;;;;;9.00;99.90;;;;;;5048273;28;19930;-86
2023/12/13 09:29:04;;;;;;;;;;;9.00;99.90;;;;;;5030148;28;20403;-86
2023/12/13 09:31:30;;;;;;;;;;;9.20;99.90;;;;;;5030305;28;19955;-86
2023/12/13 09:33:57;;;;;;;;;;;9.30;99.90;;;;;;5030459;28;20431;-87
2023/12/13 09:36:22;;;;;;;;;;;9.40;99.90;;;;;;5034386;28;20608;-87
2023/12/13 09:38:48;;;;;;;;;;;9.40;99.90;;;;;;5030588;28;19999;-87
2023/12/13 09:41:30;;;;;;;;;;;9.40;99.90;;;;;;5048071;28;19916;-87
2023/12/13 09:43:57;;;;;;;;;;;9.50;99.90;;;;;;5030422;28;19908;-87
2023/12/13 09:46:24;;;;;;;;;;;9.60;99.90;;;;;;5030560;28;19915;-86
2023/12/13 09:48:50;;;;;;;;;;;9.50;99.90;;;;;;5029958;28;19983;-86
2023/12/13 09:51:18;;;;;;;;;;;9.30;99.90;;;;;;5047431;28;19917;-85
2023/12/13 09:53:44;;;;;;;;;;;9.50;99.90;;;;;;5047645;28;19923;-86
2023/12/13 09:56:10;;;;;;;;;;;9.40;99.90;;;;;;5047739;28;19912;-86
2023/12/13 09:58:35;;;;;;;;;;;9.60;99.90;;;;;;5029703;28;19919;-85
2023/12/13 10:01:05;;;;;;;;;;;9.60;99.90;;;;;;5047263;28;19908;-85
2023/12/13 10:03:31;;;;;;;;;;;9.50;99.90;;;;;;5047386;28;20399;-86
2023/12/13 10:05:57;;;;;;;;;;;9.70;99.90;;;;;;5047530;28;19938;-86
2023/12/13 10:08:24;;;;;;;;;;;10.10;99.90;;;;;;5047798;28;19943;-85
2023/12/13 10:10:50;;;;;;;;;;;10.40;99.90;;;;;;5029530;28;19908;-85
2023/12/13 10:13:15;;;;;;;;;;;10.70;99.90;;;;;;5047243;28;19916;-85
2023/12/13 10:15:41;;;;;;;;;;;10.20;99.90;;;;;;5029664;28;20019;-85
2023/12/13 10:18:06;;;;;;;;;;;10.40;99.90;;;;;;5029298;28;20025;-85
2023/12/13 10:20:32;;;;;;;;;;;10.50;99.90;;;;;;5029397;28;19909;-84
2023/12/13 10:22:57;;;;;;;;;;;10.20;99.90;;;;;;5029603;28;19919;-85
2023/12/13 10:25:23;;;;;;;;;;;10.20;99.90;;;;;;5030646;28;20445;-86
2023/12/13 10:27:50;;;;;;;;;;;10.30;99.90;;;;;;5048494;28;19908;-84
2023/12/13 10:30:17;;;;;;;;;;;9.90;99.90;;;;;;5042059;28;19916;-85
2023/12/13 10:32:43;;;;;;;;;;;10.10;99.90;;;;;;5048433;28;19962;-85
2023/12/13 10:35:09;;;;;;;;;;;10.40;99.90;;;;;;5030120;28;20379;-84
2023/12/13 10:37:35;;;;;;;;;;;10.30;99.90;;;;;;5046828;28;20022;-85
2023/12/13 10:40:00;;;;;;;;;;;9.90;99.90;;;;;;5042148;28;19947;-84
2023/12/13 10:42:26;;;;;;;;;;;9.80;99.90;;;;;;5047305;28;20606;-85
2023/12/13 10:44:52;;;;;;;;;;;9.80;99.90;;;;;;5029284;28;19909;-84
2023/12/13 10:47:23;;;;;;;;;;;10.00;99.90;;;;;;5047158;28;19912;-85
2023/12/13 10:49:51;;;;;;;;;;;10.50;99.90;;;;;;5029475;28;19909;-84
2023/12/13 10:52:17;;;;;;;;;;;11.30;99.90;;;;;;5025882;28;19917;-84
2023/12/13 10:54:43;;;;;;;;;;;10.90;99.90;;;;;;5046233;28;19908;-85
2023/12/13 10:57:12;;;;;;;;;;;10.60;99.90;;;;;;5028938;28;19941;-85
2023/12/13 10:59:41;;;;;;;;;;;10.20;99.90;;;;;;5027538;28;19909;-84
2023/12/13 11:02:08;;;;;;;;;;;10.10;99.90;;;;;;5027571;28;19919;-84
2023/12/13 11:04:35;;;;;;;;;;;10.20;99.90;;;;;;5046302;28;19908;-85
2023/12/13 11:07:02;;;;;;;;;;;10.00;99.90;;;;;;5046608;28;20000;-85
2023/12/13 11:09:29;;;;;;;;;;;9.80;99.90;;;;;;5032670;28;20657;-85
2023/12/13 11:11:57;;;;;;;;;;;9.80;99.90;;;;;;5048293;28;19913;-84
2023/12/13 11:14:26;;;;;;;;;;;9.80;99.90;;;;;;5032487;28;19915;-84
2023/12/13 11:16:52;;;;;;;;;;;9.60;99.90;;;;;;5050339;28;20008;-84
2023/12/13 11:19:22;;;;;;;;;;;9.50;99.90;;;;;;5032873;28;19964;-84
2023/12/13 11:21:48;;;;;;;;;;;9.30;99.90;;;;;;5050303;28;19955;-84
2023/12/13 11:24:16;;;;;;;;;;;9.30;99.90;;;;;;5050565;28;19963;-84
2023/12/13 11:26:43;;;;;;;;;;;9.30;99.90;;;;;;5050177;28;19908;-84
2023/12/13 11:29:13;;;;;;;;;;;9.20;99.90;;;;;;5029050;28;20031;-84
2023/12/13 11:31:47;;;;;;;;;;;9.00;99.90;;;;;;5051091;28;19932;-84
2023/12/13 11:34:12;;;;;;;;;;;9.00;99.90;;;;;;5045046;28;19951;-85
2023/12/13 11:36:39;;;;;;;;;;;8.80;99.90;;;;;;5032889;28;19982;-84
2023/12/13 11:39:07;;;;;;;;;;;8.70;99.90;;;;;;5045587;28;19909;-83
2023/12/13 11:41:33;;;;;;;;;;;8.70;99.90;;;;;;5050570;28;19919;-84
2023/12/13 11:43:59;;;;;;;;;;;9.00;99.90;;;;;;5032902;28;19912;-84
2023/12/13 11:46:25;;;;;;;;;;;9.10;99.90;;;;;;5045918;28;20606;-85
2023/12/13 11:48:51;;;;;;;;;;;9.20;99.90;;;;;;5034039;28;19908;-85
2023/12/13 11:51:16;;;;;;;;;;;9.20;99.90;;;;;;5051282;28;19915;-85
2023/12/13 11:53:42;;;;;;;;;;;9.10;99.90;;;;;;5050240;28;19909;-84
2023/12/13 11:56:09;;;;;;;;;;;9.20;99.90;;;;;;5029041;28;20567;-83
2023/12/13 11:58:35;;;;;;;;;;;9.20;99.90;;;;;;5031593;28;19909;-83
2023/12/13 12:01:01;;;;;;;;;;;9.20;99.90;;;;;;5031737;28;20394;-85
2023/12/13 12:03:26;;;;;;;;;;;9.10;99.90;;;;;;5049552;28;20023;-86
2023/12/13 12:05:52;;;;;;;;;;;9.10;99.90;;;;;;5033029;28;20301;-84
2023/12/13 12:08:23;;;;;;;;;;;9.20;99.90;;;;;;5050719;28;19927;-85
2023/12/13 12:10:50;;;;;;;;;;;9.20;99.90;;;;;;5049812;28;19915;-84
2023/12/13 12:13:17;;;;;;;;;;;9.10;99.90;;;;;;5048853;28;20284;-84
2023/12/13 12:15:44;;;;;;;;;;;9.00;99.90;;;;;;5049484;28;19909;-83
2023/12/13 12:18:10;;;;;;;;;;;8.90;99.90;;;;;;5031489;28;19916;-84
2023/12/13 12:20:36;;;;;;;;;;;8.80;99.90;;;;;;5031745;28;19936;-83
2023/12/13 12:23:02;;;;;;;;;;;8.80;99.90;;;;;;5049739;28;19916;-84
2023/12/13 12:25:29;;;;;;;;;;;9.00;99.90;;;;;;5031649;28;19908;-83
2023/12/13 12:27:55;;;;;;;;;;;8.80;99.90;;;;;;5049836;28;20381;-83
2023/12/13 12:30:22;;;;;;;;;;;8.90;99.90;;;;;;5031735;28;19917;-82
2023/12/13 12:32:48;;;;;;;;;;;8.90;99.90;;;;;;5049972;28;19912;-83
2023/12/13 12:35:13;;;;;;;;;;;9.10;99.90;;;;;;5049144;28;19909;-83
2023/12/13 12:37:40;;;;;;;;;;;8.90;99.90;;;;;;5049074;28;19999;-84
2023/12/13 12:40:06;;;;;;;;;;;8.90;99.90;;;;;;5048700;28;19995;-83
2023/12/13 12:42:32;;;;;;;;;;;9.00;99.90;;;;;;5049047;28;19913;-83
2023/12/13 12:44:57;;;;;;;;;;;9.00;99.90;;;;;;5031519;28;20438;-82
2023/12/13 12:47:23;;;;;;;;;;;9.20;99.90;;;;;;5049388;28;19909;-83
2023/12/13 12:49:49;;;;;;;;;;;9.10;99.90;;;;;;5031261;28;19908;-83
2023/12/13 12:52:15;;;;;;;;;;;9.20;99.90;;;;;;5048815;28;19916;-83
2023/12/13 12:54:40;;;;;;;;;;;9.20;99.90;;;;;;5048603;28;20447;-83
2023/12/13 12:57:06;;;;;;;;;;;9.30;99.90;;;;;;5049055;28;19908;-84
2023/12/13 12:59:31;;;;;;;;;;;9.60;99.90;;;;;;5048493;28;19951;-84
2023/12/13 13:01:58;;;;;;;;;;;9.50;99.90;;;;;;5031172;28;19913;-85
2023/12/13 13:04:25;;;;;;;;;;;9.60;99.90;;;;;;5067428;28;19913;-83
2023/12/13 13:06:51;;;;;;;;;;;9.50;99.90;;;;;;5049232;28;20441;-83
2023/12/13 13:09:16;;;;;;;;;;;9.40;99.90;;;;;;5048537;28;19912;-82
2023/12/13 13:11:42;;;;;;;;;;;9.40;99.90;;;;;;5046931;28;19915;-83
2023/12/13 13:14:08;;;;;;;;;;;9.20;99.90;;;;;;5031577;28;19962;-83
2023/12/13 13:16:33;;;;;;;;;;;8.90;99.90;;;;;;5031759;28;19916;-83
2023/12/13 13:18:59;;;;;;;;;;;8.70;99.90;;;;;;5032297;28;19932;-85
2023/12/13 13:21:25;;;;;;;;;;;8.70;99.90;;;;;;5049318;28;19916;-85
2023/12/13 13:23:51;;;;;;;;;;;8.70;99.90;;;;;;5031411;28;19908;-84
2023/12/13 13:26:16;;;;;;;;;;;8.60;99.90;;;;;;5030165;28;19934;-83
2023/12/13 13:28:42;;;;;;;;;;;8.70;99.90;;;;;;5046861;28;19948;-82
2023/12/13 13:31:07;;;;;;;;;;;8.80;99.90;;;;;;5026159;28;19921;-83
2023/12/13 13:33:33;;;;;;;;;;;8.90;99.90;;;;;;5030970;28;19909;-83
2023/12/13 13:35:59;;;;;;;;;;;8.90;99.90;;;;;;5029632;28;19908;-82
2023/12/13 13:38:24;;;;;;;;;;;9.00;99.90;;;;;;5047866;28;19908;-83
2023/12/13 13:40:50;;;;;;;;;;;8.90;99.90;;;;;;5030565;28;20458;-82
2023/12/13 13:43:15;;;;;;;;;;;9.10;99.90;;;;;;5032502;28;19913;-84
2023/12/13 13:45:41;;;;;;;;;;;9.20;99.90;;;;;;5047957;28;19909;-84
2023/12/13 13:48:06;;;;;;;;;;;9.30;99.90;;;;;;5029583;28;20027;-83
2023/12/13 13:50:32;;;;;;;;;;;9.30;99.90;;;;;;5046419;28;19923;-83
2023/12/13 13:52:57;;;;;;;;;;;9.10;99.90;;;;;;5044616;28;20283;-83
2023/12/13 13:55:23;;;;;;;;;;;9.40;99.90;;;;;;5047440;28;19919;-82
2023/12/13 13:57:49;;;;;;;;;;;9.10;99.90;;;;;;5029858;28;20031;-84
2023/12/13 14:00:19;;;;;;;;;;;8.80;99.90;;;;;;5046020;28;20018;-83
2023/12/13 14:02:45;;;;;;;;;;;9.00;99.90;;;;;;5048132;28;19912;-84
2023/12/13 14:05:11;;;;;;;;;;;9.10;99.90;;;;;;5030126;28;19913;-84
2023/12/13 14:07:37;;;;;;;;;;;9.00;99.90;;;;;;5047869;28;20711;-83
2023/12/13 14:10:03;;;;;;;;;;;8.80;99.90;;;;;;5029701;28;19909;-83
2023/12/13 14:12:29;;;;;;;;;;;9.00;99.90;;;;;;5047550;28;20457;-82
2023/12/13 14:14:56;;;;;;;;;;;9.10;99.90;;;;;;5046644;28;20670;-84
2023/12/13 14:17:23;;;;;;;;;;;9.10;99.90;;;;;;5029507;28;19909;-84